createdAt,value
2019-05-12T00:00:39.137Z,57.60
2019-05-12T00:03:08.989Z,57.50
2019-05-12T00:05:39.503Z,57.40
2019-05-12T00:08:09.972Z,57.60
2019-05-12T00:10:40.576Z,57.50
2019-05-12T00:13:11.050Z,57.50
2019-05-12T00:15:41.501Z,58.10
2019-05-12T00:18:12.088Z,57.90
2019-05-12T00:20:42.534Z,58.20
2019-05-12T00:23:23.932Z,58.30
2019-05-12T00:25:45.228Z,58.10
2019-05-12T00:28:17.803Z,58.10
2019-05-12T00:30:50.472Z,58.30
2019-05-12T00:33:20.911Z,58.00
2019-05-12T00:35:51.371Z,57.90
2019-05-12T00:38:21.819Z,59.80
2019-05-12T00:40:52.361Z,59.50
2019-05-12T00:43:22.794Z,59.10
2019-05-12T00:45:53.247Z,59.20
2019-05-12T00:48:23.991Z,59.40
2019-05-12T00:50:54.507Z,59.20
2019-05-12T00:53:39.332Z,59.10
2019-05-12T00:56:10.937Z,59.30
2019-05-12T00:58:41.619Z,59.50
2019-05-12T01:01:12.083Z,59.60
2019-05-12T01:03:42.597Z,60.00
2019-05-12T01:06:13.004Z,60.10
2019-05-12T01:08:43.533Z,59.80
2019-05-12T01:11:13.996Z,60.00
2019-05-12T01:13:44.475Z,60.10
2019-05-12T01:16:14.924Z,60.00
2019-05-12T01:18:47.852Z,60.00
2019-05-12T01:21:18.428Z,60.10
2019-05-12T01:23:56.451Z,59.80
2019-05-12T01:26:21.145Z,60.00
2019-05-12T01:28:51.590Z,59.70
2019-05-12T01:31:23.703Z,59.60
2019-05-12T01:33:54.245Z,59.10
2019-05-12T01:36:24.677Z,59.60
2019-05-12T01:38:55.109Z,59.50
2019-05-12T01:41:25.687Z,58.90
2019-05-12T01:43:58.456Z,59.10
2019-05-12T01:46:28.905Z,58.70
2019-05-12T01:48:59.388Z,59.30
2019-05-12T01:51:29.834Z,58.90
2019-05-12T01:54:11.011Z,58.90
2019-05-12T01:56:32.473Z,59.00
2019-05-12T01:59:03.017Z,58.50
2019-05-12T02:01:33.527Z,58.80
2019-05-12T02:04:03.965Z,58.50
2019-05-12T02:06:34.471Z,59.40
2019-05-12T02:09:08.548Z,58.70
2019-05-12T02:11:38.961Z,58.70
2019-05-12T02:14:09.520Z,58.80
2019-05-12T02:16:40.050Z,58.80
2019-05-12T02:19:10.515Z,58.90
2019-05-12T02:21:41.045Z,59.00
2019-05-12T02:24:23.324Z,59.10
2019-05-12T02:26:43.680Z,59.30
2019-05-12T02:29:14.118Z,59.50
2019-05-12T02:31:44.565Z,59.40
2019-05-12T02:34:15.906Z,59.80
2019-05-12T02:36:46.625Z,59.00
2019-05-12T02:39:17.068Z,59.40
2019-05-12T02:41:47.586Z,59.20
2019-05-12T02:44:18.066Z,59.60
2019-05-12T02:46:48.582Z,59.70
2019-05-12T02:49:19.062Z,59.30
2019-05-12T02:51:50.311Z,59.50
2019-05-12T02:54:27.004Z,59.50
2019-05-12T02:56:56.575Z,59.70
2019-05-12T02:59:29.313Z,60.00
2019-05-12T03:02:05.057Z,59.20
2019-05-12T03:04:35.342Z,59.40
2019-05-12T03:07:06.664Z,59.20
2019-05-12T03:09:37.303Z,59.30
2019-05-12T03:12:07.698Z,59.40
2019-05-12T03:14:40.964Z,59.00
2019-05-12T03:17:10.543Z,59.40
2019-05-12T03:19:41.025Z,59.60
2019-05-12T03:22:13.942Z,59.30
2019-05-12T03:24:44.931Z,60.00
2019-05-12T03:27:17.745Z,60.00
2019-05-12T03:29:47.916Z,60.00
2019-05-12T03:32:18.356Z,60.90
2019-05-12T03:34:48.780Z,62.80
2019-05-12T03:37:19.263Z,63.40
2019-05-12T03:39:49.706Z,63.50
2019-05-12T03:42:20.154Z,65.50
2019-05-12T03:44:50.592Z,64.80
2019-05-12T03:47:21.005Z,65.00
2019-05-12T03:49:54.246Z,65.90
2019-05-12T03:52:24.559Z,66.30
2019-05-12T03:54:55.978Z,66.80
2019-05-12T03:57:26.739Z,68.20
2019-05-12T04:00:16.597Z,67.40
2019-05-12T04:02:47.194Z,67.80
2019-05-12T04:05:17.718Z,69.80
2019-05-12T04:07:48.135Z,70.60
2019-05-12T04:10:18.669Z,71.10
2019-05-12T04:12:49.356Z,71.70
2019-05-12T04:15:19.776Z,72.50
2019-05-12T04:17:50.194Z,72.70
2019-05-12T04:20:20.607Z,73.10
2019-05-12T04:22:51.074Z,73.30
2019-05-12T04:25:24.766Z,73.80
2019-05-12T04:27:54.651Z,73.90
2019-05-12T04:30:25.328Z,74.60
2019-05-12T04:32:55.933Z,76.40
2019-05-12T04:35:26.404Z,76.00
2019-05-12T04:37:56.821Z,75.70
2019-05-12T04:40:27.323Z,76.20
2019-05-12T04:42:57.753Z,76.80
2019-05-12T04:45:28.240Z,76.20
2019-05-12T04:47:58.742Z,77.30
2019-05-12T04:50:29.224Z,78.60
2019-05-12T04:53:00.045Z,77.80
2019-05-12T04:55:30.470Z,77.50
2019-05-12T04:58:04.232Z,79.80
2019-05-12T05:00:34.798Z,80.60
2019-05-12T05:03:06.059Z,80.10
2019-05-12T05:05:36.850Z,78.20
2019-05-12T05:08:07.425Z,80.70
2019-05-12T05:10:37.939Z,81.10
2019-05-12T05:13:08.393Z,82.10
2019-05-12T05:15:38.855Z,81.60
2019-05-12T05:18:09.356Z,82.30
2019-05-12T05:20:39.790Z,82.10
2019-05-12T05:23:10.295Z,81.20
2019-05-12T05:25:41.340Z,80.60
2019-05-12T05:28:14.539Z,81.90
2019-05-12T05:30:45.320Z,80.80
2019-05-12T05:33:15.743Z,80.30
2019-05-12T05:35:46.198Z,79.10
2019-05-12T05:38:20.595Z,77.10
2019-05-12T05:40:49.107Z,76.30
2019-05-12T05:43:19.604Z,77.40
2019-05-12T05:45:54.525Z,76.60
2019-05-12T05:48:24.117Z,78.50
2019-05-12T05:50:54.402Z,78.40
2019-05-12T05:53:25.493Z,78.30
2019-05-12T05:56:00.067Z,79.70
2019-05-12T05:58:28.157Z,80.70
2019-05-12T06:01:03.906Z,79.90
2019-05-12T06:03:30.783Z,80.20
2019-05-12T06:06:06.323Z,80.40
2019-05-12T06:08:33.885Z,77.20
2019-05-12T06:11:05.655Z,75.80
2019-05-12T06:13:39.758Z,75.70
2019-05-12T06:16:11.724Z,76.30
2019-05-12T06:18:40.894Z,75.20
2019-05-12T06:21:13.602Z,74.60
2019-05-12T06:23:43.618Z,75.20
2019-05-12T06:26:14.229Z,76.70
2019-05-12T06:28:44.707Z,72.20
2019-05-12T06:31:18.873Z,69.70
2019-05-12T06:33:47.640Z,65.10
2019-05-12T06:36:22.284Z,63.80
2019-05-12T06:38:50.264Z,58.70
2019-05-12T06:41:23.647Z,57.30
2019-05-12T06:43:54.185Z,57.20
2019-05-12T06:46:25.882Z,56.10
2019-05-12T06:49:00.879Z,56.90
2019-05-12T06:51:29.610Z,55.60
2019-05-12T06:54:00.913Z,57.00
2019-05-12T06:56:34.353Z,56.30
2019-05-12T06:59:09.877Z,53.80
2019-05-12T07:01:37.105Z,52.60
2019-05-12T07:04:10.003Z,53.20
2019-05-12T07:06:40.006Z,56.60
2019-05-12T07:09:16.401Z,57.40
2019-05-12T07:11:52.914Z,59.40
2019-05-12T07:14:27.074Z,61.40
2019-05-12T07:17:08.369Z,61.40
2019-05-12T07:19:38.889Z,62.40
2019-05-12T07:22:19.934Z,59.20
2019-05-12T07:24:50.099Z,58.50
2019-05-12T07:27:14.131Z,56.90
2019-05-12T07:29:44.737Z,54.80
2019-05-12T07:32:21.546Z,54.90
2019-05-12T07:34:50.211Z,54.80
2019-05-12T07:37:24.102Z,52.30
2019-05-12T07:40:01.080Z,52.80
2019-05-12T07:42:39.185Z,52.30
2019-05-12T07:45:06.031Z,51.40
2019-05-12T07:47:36.474Z,51.10
2019-05-12T07:50:09.979Z,50.10
2019-05-12T07:52:54.295Z,52.00
2019-05-12T07:55:26.541Z,56.10
2019-05-12T07:58:15.602Z,57.50
2019-05-12T08:01:08.001Z,60.00
2019-05-12T08:03:44.745Z,61.90
2019-05-12T08:06:15.543Z,63.60
2019-05-12T08:08:51.118Z,62.10
2019-05-12T08:11:18.611Z,64.70
2019-05-12T08:13:49.526Z,64.40
2019-05-12T08:16:25.563Z,64.40
2019-05-12T08:19:04.079Z,64.80
2019-05-12T08:21:43.572Z,68.60
2019-05-12T08:24:14.296Z,67.10
2019-05-12T08:26:49.707Z,65.80
2019-05-12T08:29:30.882Z,66.50
2019-05-12T08:32:10.074Z,65.30
2019-05-12T08:34:39.938Z,64.40
2019-05-12T08:37:14.048Z,64.00
2019-05-12T08:39:44.832Z,64.00
2019-05-12T08:42:23.961Z,62.90
2019-05-12T08:45:37.387Z,59.80
2019-05-12T08:48:25.434Z,57.70
2019-05-12T08:51:14.632Z,57.20
2019-05-12T08:53:47.955Z,58.00
2019-05-12T08:56:20.494Z,56.90
2019-05-12T08:58:54.188Z,59.70
2019-05-12T09:01:28.675Z,60.60
2019-05-12T09:04:00.477Z,61.40
2019-05-12T09:06:29.921Z,62.40
2019-05-12T09:09:03.353Z,63.70
2019-05-12T09:11:33.713Z,63.70
2019-05-12T09:14:05.874Z,65.00
2019-05-12T09:16:36.706Z,63.50
2019-05-12T09:19:10.214Z,62.30
2019-05-12T09:21:39.495Z,61.40
2019-05-12T09:24:15.542Z,61.30
2019-05-12T09:26:43.345Z,58.40
2019-05-12T09:29:14.051Z,56.70
2019-05-12T09:31:44.496Z,55.40
2019-05-12T09:34:16.572Z,55.90
2019-05-12T09:36:51.976Z,56.90
2019-05-12T09:39:19.738Z,56.20
2019-05-12T09:41:52.727Z,55.40
2019-05-12T09:44:26.439Z,56.00
2019-05-12T09:46:54.697Z,55.10
2019-05-12T09:49:39.547Z,52.50
2019-05-12T09:52:13.976Z,51.90
2019-05-12T09:54:41.163Z,51.10
2019-05-12T09:57:13.795Z,50.00
2019-05-12T09:59:45.948Z,48.30
2019-05-12T10:02:20.722Z,49.70
2019-05-12T10:04:50.379Z,48.40
2019-05-12T10:07:21.247Z,46.50
2019-05-12T10:09:55.128Z,46.60
2019-05-12T10:12:29.531Z,46.60
2019-05-12T10:14:58.965Z,46.50
2019-05-12T10:17:30.301Z,46.40
2019-05-12T10:20:04.368Z,46.50
2019-05-12T10:22:40.311Z,47.10
2019-05-12T10:25:14.193Z,48.20
2019-05-12T10:27:45.558Z,48.90
2019-05-12T10:30:17.821Z,49.20
2019-05-12T10:32:48.245Z,47.90
2019-05-12T10:35:21.543Z,46.80
2019-05-12T10:37:51.294Z,46.10
2019-05-12T10:40:23.360Z,46.80
2019-05-12T10:42:54.659Z,46.30
2019-05-12T10:45:28.087Z,46.40
2019-05-12T10:47:58.689Z,46.50
2019-05-12T10:50:29.443Z,43.00
2019-05-12T10:52:59.971Z,44.40
2019-05-12T10:55:33.831Z,41.20
2019-05-12T10:58:07.100Z,40.70
2019-05-12T11:00:36.928Z,41.90
2019-05-12T11:03:10.752Z,41.00
2019-05-12T11:05:39.765Z,39.40
2019-05-12T11:08:11.340Z,39.30
2019-05-12T11:10:44.676Z,40.40
2019-05-12T11:13:17.812Z,40.50
2019-05-12T11:15:49.610Z,39.60
2019-05-12T11:18:25.979Z,41.30
2019-05-12T11:20:54.442Z,41.60
2019-05-12T11:23:25.048Z,41.50
2019-05-12T11:25:55.542Z,39.60
2019-05-12T11:28:33.584Z,37.40
2019-05-12T11:31:04.932Z,35.80
2019-05-12T11:33:35.370Z,35.10
2019-05-12T11:36:05.918Z,33.80
2019-05-12T11:38:36.408Z,34.20
2019-05-12T11:41:09.935Z,34.10
2019-05-12T11:43:39.389Z,35.50
2019-05-12T11:46:12.694Z,33.80
2019-05-12T11:48:46.294Z,34.80
2019-05-12T11:51:15.505Z,34.40
2019-05-12T11:53:45.979Z,33.10
2019-05-12T11:56:17.010Z,32.40
2019-05-12T11:59:03.093Z,33.00
2019-05-12T12:01:47.573Z,31.50
2019-05-12T12:04:25.176Z,30.20
2019-05-12T12:06:55.736Z,30.30
2019-05-12T12:09:26.393Z,31.80
2019-05-12T12:12:07.265Z,33.80
2019-05-12T12:14:40.254Z,32.10
2019-05-12T12:17:15.266Z,32.30
2019-05-12T12:19:46.942Z,35.40
2019-05-12T12:22:28.082Z,32.90
2019-05-12T12:24:55.158Z,32.70
2019-05-12T12:27:25.605Z,34.10
2019-05-12T12:29:56.105Z,33.60
2019-05-12T12:32:28.709Z,33.90
2019-05-12T12:35:00.897Z,34.40
2019-05-12T12:37:33.166Z,33.80
2019-05-12T12:40:04.279Z,34.80
2019-05-12T12:42:38.544Z,32.00
2019-05-12T12:45:30.459Z,32.50
2019-05-12T12:47:58.228Z,33.00
2019-05-12T12:50:30.684Z,35.20
2019-05-12T12:53:01.042Z,37.70
2019-05-12T12:55:31.490Z,36.90
2019-05-12T12:58:03.322Z,35.30
2019-05-12T13:00:46.615Z,35.00
2019-05-12T13:03:06.943Z,34.40
2019-05-12T13:05:37.477Z,34.20
2019-05-12T13:08:07.928Z,34.60
2019-05-12T13:10:40.699Z,36.60
2019-05-12T13:13:10.676Z,34.50
2019-05-12T13:15:41.446Z,35.00
2019-05-12T13:18:17.876Z,34.50
2019-05-12T13:20:45.132Z,32.50
2019-05-12T13:23:15.712Z,32.60
2019-05-12T13:25:50.797Z,35.30
2019-05-12T13:28:22.365Z,34.80
2019-05-12T13:30:54.002Z,35.30
2019-05-12T13:33:23.733Z,34.20
2019-05-12T13:35:55.714Z,34.50
2019-05-12T13:38:30.455Z,37.20
2019-05-12T13:40:58.726Z,38.60
2019-05-12T13:43:29.174Z,39.20
2019-05-12T13:45:59.760Z,37.50
2019-05-12T13:48:30.280Z,35.80
2019-05-12T13:51:08.430Z,34.60
2019-05-12T13:53:33.474Z,35.00
2019-05-12T13:56:04.883Z,34.80
2019-05-12T13:58:42.601Z,33.40
2019-05-12T14:01:18.375Z,33.70
2019-05-12T14:04:22.190Z,35.10
2019-05-12T14:06:53.278Z,35.00
2019-05-12T14:09:24.019Z,35.00
2019-05-12T14:11:56.047Z,38.30
2019-05-12T14:14:26.549Z,39.10
2019-05-12T14:16:59.253Z,39.90
2019-05-12T14:19:30.316Z,38.90
2019-05-12T14:22:03.465Z,39.40
2019-05-12T14:24:41.822Z,39.70
2019-05-12T14:27:06.026Z,41.40
2019-05-12T14:29:36.496Z,41.90
2019-05-12T14:32:12.311Z,41.00
2019-05-12T14:34:43.516Z,42.60
2019-05-12T14:37:17.368Z,41.50
2019-05-12T14:39:50.233Z,40.10
2019-05-12T14:42:18.403Z,39.90
2019-05-12T14:44:49.814Z,40.50
2019-05-12T14:47:28.329Z,40.60
2019-05-12T14:49:56.889Z,38.60
2019-05-12T14:52:27.853Z,39.90
2019-05-12T14:54:58.387Z,40.90
2019-05-12T14:57:42.700Z,42.30
2019-05-12T15:00:24.169Z,42.10
2019-05-12T15:02:59.169Z,42.20
2019-05-12T15:05:36.179Z,40.80
2019-05-12T15:08:13.939Z,41.00
2019-05-12T15:10:45.520Z,43.60
2019-05-12T15:13:17.328Z,43.10
2019-05-12T15:15:50.087Z,42.70
2019-05-12T15:18:20.002Z,44.00
2019-05-12T15:20:51.677Z,44.00
2019-05-12T15:23:32.658Z,42.70
2019-05-12T15:26:09.726Z,42.90
2019-05-12T15:28:36.736Z,43.30
2019-05-12T15:31:07.341Z,43.70
2019-05-12T15:33:37.799Z,44.00
2019-05-12T15:36:08.412Z,44.50
2019-05-12T15:38:38.882Z,45.00
2019-05-12T15:41:10.634Z,46.40
2019-05-12T15:43:44.432Z,45.80
2019-05-12T15:46:16.357Z,44.60
2019-05-12T15:48:46.012Z,45.40
2019-05-12T15:51:16.468Z,45.70
2019-05-12T15:53:46.998Z,46.10
2019-05-12T15:56:23.060Z,44.90
2019-05-12T15:58:55.869Z,45.10
2019-05-12T16:01:24.389Z,46.20
2019-05-12T16:03:54.920Z,46.50
2019-05-12T16:06:25.346Z,46.30
2019-05-12T16:08:55.870Z,47.50
2019-05-12T16:11:26.399Z,47.60
2019-05-12T16:13:59.315Z,48.50
2019-05-12T16:16:33.996Z,47.90
2019-05-12T16:19:20.536Z,48.30
2019-05-12T16:21:54.184Z,49.20
2019-05-12T16:24:27.368Z,50.80
2019-05-12T16:26:57.249Z,48.90
2019-05-12T16:29:27.866Z,50.50
2019-05-12T16:32:04.716Z,51.20
2019-05-12T16:35:34.610Z,49.20
2019-05-12T16:43:07.157Z,50.80
2019-05-12T16:46:29.867Z,51.00
2019-05-12T16:50:15.294Z,51.80
2019-05-12T16:52:57.831Z,51.80
2019-05-12T16:56:05.526Z,50.30
2019-05-12T17:06:38.582Z,50.90
2019-05-12T17:09:09.762Z,51.30
2019-05-12T17:11:47.315Z,52.30
2019-05-12T17:14:16.046Z,51.20
2019-05-12T17:16:49.308Z,51.00
2019-05-12T17:19:23.662Z,51.70
2019-05-12T17:21:59.496Z,53.40
2019-05-12T17:24:29.949Z,54.00
2019-05-12T17:27:03.536Z,52.90
2019-05-12T17:29:40.736Z,51.80
2019-05-12T17:32:13.272Z,52.60
2019-05-12T17:34:47.602Z,52.90
2019-05-12T17:37:20.356Z,50.90
2019-05-12T17:39:51.193Z,50.90
2019-05-12T17:42:26.652Z,50.40
2019-05-12T17:45:15.944Z,52.30
2019-05-12T17:47:44.454Z,53.00
2019-05-12T17:50:15.811Z,52.00
2019-05-12T17:52:50.450Z,52.60
2019-05-12T17:55:18.855Z,53.80
2019-05-12T17:57:55.491Z,54.00
2019-05-12T18:00:23.526Z,53.80
2019-05-12T18:02:56.258Z,53.20
2019-05-12T18:05:26.426Z,52.80
2019-05-12T18:07:56.922Z,52.60
2019-05-12T18:10:27.517Z,54.20
2019-05-12T18:12:59.426Z,54.20
2019-05-12T18:15:33.231Z,54.70
2019-05-12T18:18:04.087Z,55.50
2019-05-12T18:20:43.969Z,54.50
2019-05-12T18:23:13.460Z,55.00
2019-05-12T18:25:47.608Z,54.90
2019-05-12T18:28:21.695Z,55.30
2019-05-12T18:30:51.120Z,56.10
2019-05-12T18:33:33.047Z,56.60
2019-05-12T18:35:55.769Z,56.60
2019-05-12T18:38:26.816Z,56.90
2019-05-12T18:40:57.397Z,56.50
2019-05-12T18:43:27.900Z,56.10
2019-05-12T18:46:05.548Z,56.80
2019-05-12T18:48:34.450Z,57.00
2019-05-12T18:51:11.930Z,57.20
2019-05-12T18:53:38.309Z,57.50
2019-05-12T18:56:10.430Z,58.20
2019-05-12T18:58:41.058Z,57.90
2019-05-12T19:01:13.952Z,57.80
2019-05-12T19:03:50.529Z,57.30
2019-05-12T19:06:16.199Z,56.90
2019-05-12T19:08:46.674Z,56.20
2019-05-12T19:11:22.724Z,56.80
2019-05-12T19:14:51.765Z,57.30
2019-05-12T19:22:14.831Z,57.30
2019-05-12T19:36:59.200Z,58.70
2019-05-12T19:39:44.641Z,59.10
2019-05-12T19:42:18.567Z,59.20
2019-05-12T19:44:47.522Z,59.40
2019-05-12T19:47:21.383Z,59.50
2019-05-12T19:49:51.293Z,59.40
2019-05-12T19:52:24.368Z,59.40
2019-05-12T19:54:55.103Z,59.50
2019-05-12T19:57:26.316Z,59.70
2019-05-12T19:59:56.905Z,59.80
2019-05-12T20:02:27.365Z,59.90
2019-05-12T20:04:57.933Z,60.20
2019-05-12T20:07:28.486Z,61.30
2019-05-12T20:10:00.501Z,61.50
2019-05-12T20:12:31.133Z,61.70
2019-05-12T20:15:03.811Z,61.60
2019-05-12T20:17:34.121Z,61.70
2019-05-12T20:20:04.990Z,61.50
2019-05-12T20:22:35.477Z,61.70
2019-05-12T20:25:06.068Z,61.70
2019-05-12T20:27:36.522Z,62.00
2019-05-12T20:30:17.220Z,61.50
2019-05-12T20:32:40.432Z,62.30
2019-05-12T20:35:11.005Z,62.70
2019-05-12T20:37:44.229Z,63.20
2019-05-12T20:40:14.391Z,63.50
2019-05-12T20:43:07.032Z,63.10
2019-05-12T20:45:17.527Z,63.70
2019-05-12T20:47:47.994Z,64.20
2019-05-12T20:50:18.453Z,64.60
2019-05-12T20:52:53.497Z,64.70
2019-05-12T20:55:23.287Z,64.70
2019-05-12T20:57:56.723Z,64.90
2019-05-12T21:00:25.517Z,65.20
2019-05-12T21:02:55.970Z,65.50
2019-05-12T21:05:26.789Z,65.70
2019-05-12T21:08:03.339Z,65.70
2019-05-12T21:10:29.872Z,65.70
2019-05-12T21:13:00.418Z,66.30
2019-05-12T21:15:40.730Z,66.10
2019-05-12T21:18:07.236Z,65.90
2019-05-12T21:20:35.803Z,66.20
2019-05-12T21:23:06.354Z,66.30
2019-05-12T21:25:36.792Z,66.50
2019-05-12T21:28:08.060Z,66.40
2019-05-12T21:30:42.449Z,66.70
2019-05-12T21:33:10.842Z,66.60
2019-05-12T21:35:45.441Z,66.50
2019-05-12T21:38:18.819Z,67.10
2019-05-12T21:40:45.970Z,67.20
2019-05-12T21:43:16.418Z,67.00
2019-05-12T21:45:47.009Z,67.00
2019-05-12T21:48:23.663Z,66.90
2019-05-12T21:50:49.945Z,67.30
2019-05-12T21:53:23.678Z,67.10
2019-05-12T21:55:55.251Z,67.60
2019-05-12T21:58:26.253Z,67.40
2019-05-12T22:01:05.198Z,67.60
2019-05-12T22:03:35.085Z,68.50
2019-05-12T22:06:15.238Z,68.60
2019-05-12T22:08:37.970Z,68.70
2019-05-12T22:11:11.507Z,69.50
2019-05-12T22:13:46.904Z,69.10
2019-05-12T22:16:14.193Z,69.10
2019-05-12T22:18:47.687Z,69.50
2019-05-12T22:21:17.272Z,69.20
2019-05-12T22:23:51.269Z,69.10
2019-05-12T22:26:19.982Z,69.20
2019-05-12T22:28:51.027Z,70.00
2019-05-12T22:31:24.123Z,69.60
2019-05-12T22:33:56.434Z,69.40
2019-05-12T22:36:29.954Z,70.00
2019-05-12T22:39:00.741Z,69.50
2019-05-12T22:41:36.847Z,70.00
2019-05-12T22:44:02.851Z,70.10
2019-05-12T22:46:35.835Z,70.30
2019-05-12T22:49:10.395Z,70.10
2019-05-12T22:51:37.762Z,69.50
2019-05-12T22:54:10.620Z,69.50
2019-05-12T22:56:40.735Z,69.80
2019-05-12T22:59:13.646Z,70.20
2019-05-12T23:01:46.329Z,70.30
2019-05-12T23:04:15.597Z,70.20
2019-05-12T23:06:46.916Z,69.90
2019-05-12T23:09:19.402Z,69.90
2019-05-12T23:11:49.683Z,69.40
2019-05-12T23:14:22.376Z,69.40
2019-05-12T23:16:54.481Z,69.60
2019-05-12T23:19:24.630Z,69.90
2019-05-12T23:21:58.759Z,69.60
2019-05-12T23:24:30.350Z,70.00
2019-05-12T23:26:59.513Z,70.10
2019-05-12T23:29:31.110Z,70.50
2019-05-12T23:32:07.194Z,70.20
2019-05-12T23:34:34.298Z,69.90
2019-05-12T23:37:04.848Z,70.20
2019-05-12T23:39:38.277Z,70.00
2019-05-12T23:42:08.121Z,70.30
2019-05-12T23:44:39.081Z,69.90
2019-05-12T23:47:09.951Z,70.50
2019-05-12T23:49:40.542Z,71.40
2019-05-12T23:52:11.035Z,70.80
2019-05-12T23:54:41.581Z,70.80
2019-05-12T23:57:13.605Z,70.70
2019-05-12T23:59:44.352Z,71.00
